Time;durP1;ratioP1;P1;durP2;ratioP2;P2;SDS_P1;SDS_P2;PMS_P1;PMS_P2;Temp;Humidity;BMP_temperature;BMP_pressure;BME280_temperature;BME280_humidity;BME280_pressure;Samples;Min_cycle;Max_cycle;Signal;HPM_P1;HPM_P2
2023/11/19 00:00:11;;;;;;;8.43;6.03;;;5.40;99.90;;;;;;5040696;28;20191;-46
2023/11/19 00:02:38;;;;;;;7.60;5.90;;;5.40;99.90;;;;;;5008461;28;21136;-44
2023/11/19 00:05:06;;;;;;;8.50;5.77;;;5.40;99.90;;;;;;5041251;28;20529;-47
2023/11/19 00:07:34;;;;;;;7.37;5.10;;;5.40;99.90;;;;;;5036711;28;20215;-50
2023/11/19 00:10:10;;;;;;;6.90;5.40;;;5.40;99.90;;;;;;5040835;28;20207;-47
2023/11/19 00:12:37;;;;;;;6.13;5.37;;;5.40;99.90;;;;;;5034082;28;20483;-50
2023/11/19 00:15:06;;;;;;;6.53;5.50;;;5.40;99.90;;;;;;5040288;28;20192;-49
2023/11/19 00:17:33;;;;;;;5.77;4.87;;;5.40;99.90;;;;;;4995762;28;20227;-49
2023/11/19 00:19:59;;;;;;;5.57;4.47;;;5.40;99.90;;;;;;5035801;28;20206;-48
2023/11/19 00:22:26;;;;;;;6.37;4.67;;;5.50;99.90;;;;;;5036593;28;20619;-47
2023/11/19 00:24:55;;;;;;;5.93;4.27;;;5.40;99.90;;;;;;5039920;28;20221;-46
2023/11/19 00:27:21;;;;;;;7.20;4.37;;;5.40;99.90;;;;;;5037536;28;20757;-47
2023/11/19 00:29:49;;;;;;;4.93;4.03;;;5.50;99.90;;;;;;5037860;28;20265;-52
2023/11/19 00:32:16;;;;;;;7.33;4.00;;;5.50;99.90;;;;;;5006243;28;20287;-50
2023/11/19 00:34:45;;;;;;;5.23;3.50;;;5.50;99.90;;;;;;5026601;28;20905;-48
2023/11/19 00:37:11;;;;;;;5.40;4.30;;;5.50;99.90;;;;;;5034896;28;20224;-46
2023/11/19 00:39:38;;;;;;;5.37;4.23;;;5.50;99.90;;;;;;5031354;28;20203;-46
2023/11/19 00:42:06;;;;;;;4.90;3.50;;;5.50;99.90;;;;;;5031019;28;20219;-49
2023/11/19 00:44:33;;;;;;;4.87;4.00;;;5.50;99.90;;;;;;5030448;28;20188;-47
2023/11/19 00:47:01;;;;;;;4.23;3.30;;;5.50;99.90;;;;;;5039377;28;20215;-46
2023/11/19 00:49:29;;;;;;;3.50;3.20;;;5.50;99.90;;;;;;4997739;28;20754;-47
2023/11/19 00:51:56;;;;;;;3.77;3.17;;;5.50;99.90;;;;;;5039649;28;20229;-51
2023/11/19 00:54:25;;;;;;;3.17;2.87;;;5.50;99.90;;;;;;5040927;28;20191;-46
2023/11/19 00:56:52;;;;;;;3.23;2.97;;;5.50;99.90;;;;;;5043793;28;20192;-48
2023/11/19 00:59:20;;;;;;;3.73;2.57;;;5.50;99.90;;;;;;5041687;28;20191;-48
2023/11/19 01:01:47;;;;;;;2.97;2.77;;;5.50;99.90;;;;;;5042652;28;20284;-49
2023/11/19 01:04:14;;;;;;;3.03;2.73;;;5.50;99.90;;;;;;5007905;28;20357;-49
2023/11/19 01:06:42;;;;;;;3.20;2.13;;;5.50;99.90;;;;;;5029390;28;20304;-49
2023/11/19 01:09:09;;;;;;;3.00;2.73;;;5.50;99.90;;;;;;5043662;28;20253;-49
2023/11/19 01:11:36;;;;;;;2.23;2.03;;;5.50;99.90;;;;;;5040443;28;20277;-50
2023/11/19 01:14:03;;;;;;;2.73;2.53;;;5.50;99.90;;;;;;5042039;28;20257;-49
2023/11/19 01:16:31;;;;;;;2.60;2.40;;;5.60;99.90;;;;;;5038174;28;20195;-46
2023/11/19 01:18:58;;;;;;;2.30;2.10;;;5.60;99.90;;;;;;5019843;28;20701;-47
2023/11/19 01:21:26;;;;;;;2.27;2.10;;;5.60;99.90;;;;;;5036310;28;20203;-50
2023/11/19 01:23:53;;;;;;;2.30;2.17;;;5.60;99.90;;;;;;5043363;28;20305;-46
2023/11/19 01:26:19;;;;;;;1.90;1.80;;;5.60;99.90;;;;;;5039630;28;20689;-46
2023/11/19 01:28:48;;;;;;;2.03;1.87;;;5.60;99.90;;;;;;5041966;28;20945;-47
2023/11/19 01:31:16;;;;;;;2.00;1.90;;;5.60;99.90;;;;;;5040958;28;20719;-45
2023/11/19 01:33:46;;;;;;;1.77;1.60;;;5.60;99.90;;;;;;5010159;28;21911;-48
2023/11/19 01:36:14;;;;;;;3.03;1.57;;;5.60;99.90;;;;;;5040000;28;20199;-50
2023/11/19 01:38:41;;;;;;;3.17;1.40;;;5.60;99.90;;;;;;5040829;28;20212;-46
2023/11/19 01:41:08;;;;;;;2.57;1.53;;;5.60;99.90;;;;;;5043315;28;20199;-47
2023/11/19 01:43:36;;;;;;;1.67;1.40;;;5.60;99.90;;;;;;5037859;28;20269;-45
2023/11/19 01:46:04;;;;;;;1.93;1.73;;;5.60;99.90;;;;;;5043136;28;20815;-48
2023/11/19 01:48:32;;;;;;;1.43;1.33;;;5.60;99.90;;;;;;5037298;28;20245;-49
2023/11/19 01:51:02;;;;;;;1.47;1.37;;;5.60;99.90;;;;;;5000660;28;20216;-49
2023/11/19 01:53:29;;;;;;;2.00;1.30;;;5.60;99.90;;;;;;5036477;28;20299;-45
2023/11/19 01:55:57;;;;;;;1.00;1.00;;;5.60;99.90;;;;;;5041328;28;20289;-46
2023/11/19 01:58:25;;;;;;;1.57;1.30;;;5.60;99.90;;;;;;5039586;28;20231;-46
2023/11/19 02:00:52;;;;;;;1.77;1.60;;;5.60;99.90;;;;;;5041662;28;20571;-48
2023/11/19 02:03:19;;;;;;;1.50;1.40;;;5.70;99.90;;;;;;5039300;28;20195;-48
2023/11/19 02:05:48;;;;;;;1.40;1.20;;;5.70;99.90;;;;;;5011726;28;20203;-47
2023/11/19 02:08:17;;;;;;;1.60;1.43;;;5.70;99.90;;;;;;5031453;28;20227;-47
2023/11/19 02:10:44;;;;;;;1.20;1.10;;;5.70;99.90;;;;;;5039271;28;20238;-48
2023/11/19 02:13:11;;;;;;;2.70;1.40;;;5.60;99.90;;;;;;5040931;28;20398;-47
2023/11/19 02:15:37;;;;;;;1.00;0.97;;;5.70;99.90;;;;;;5039431;28;20261;-46
2023/11/19 02:18:21;;;;;;;0.87;0.87;;;5.70;99.90;;;;;;5042631;28;20304;-45
2023/11/19 02:20:49;;;;;;;1.10;1.00;;;5.70;99.90;;;;;;5020558;28;20312;-48
2023/11/19 02:23:18;;;;;;;1.17;1.07;;;5.70;99.90;;;;;;5036812;28;20265;-48
2023/11/19 02:25:52;;;;;;;0.80;0.80;;;5.70;99.90;;;;;;5028810;28;20203;-47
2023/11/19 02:28:21;;;;;;;0.90;0.90;;;5.70;99.90;;;;;;5040711;28;20219;-47
2023/11/19 02:30:48;;;;;;;0.70;0.70;;;5.70;99.90;;;;;;5038587;28;20578;-45
2023/11/19 02:33:15;;;;;;;0.93;0.80;;;5.70;99.90;;;;;;5040644;28;20246;-47
2023/11/19 02:35:42;;;;;;;0.80;0.80;;;5.70;99.90;;;;;;5010116;28;20215;-46
2023/11/19 02:38:09;;;;;;;0.93;0.93;;;5.70;99.90;;;;;;5031771;28;20269;-47
2023/11/19 02:40:36;;;;;;;1.50;0.77;;;5.80;99.90;;;;;;5039420;28;20192;-48
2023/11/19 02:43:04;;;;;;;0.80;0.80;;;5.80;99.90;;;;;;5038419;28;20195;-51
2023/11/19 02:45:33;;;;;;;0.80;0.80;;;5.70;99.90;;;;;;5039962;28;20662;-47
2023/11/19 02:48:01;;;;;;;0.70;0.70;;;5.80;99.90;;;;;;5038274;28;20974;-48
2023/11/19 02:50:29;;;;;;;0.97;0.93;;;5.70;99.90;;;;;;5015627;28;20286;-48
2023/11/19 02:52:57;;;;;;;0.67;0.60;;;5.70;99.90;;;;;;5028517;28;20212;-49
2023/11/19 02:55:24;;;;;;;1.00;0.97;;;5.80;99.90;;;;;;5040113;28;20206;-45
2023/11/19 02:57:53;;;;;;;0.50;0.50;;;5.80;99.90;;;;;;5037800;28;20298;-49
2023/11/19 03:00:24;;;;;;;0.93;0.93;;;5.80;99.90;;;;;;5042189;28;20222;-47
2023/11/19 03:02:59;;;;;;;0.60;0.60;;;5.80;99.90;;;;;;5036755;28;20265;-47
2023/11/19 03:05:30;;;;;;;1.10;1.00;;;5.80;99.90;;;;;;5038669;28;20233;-46
2023/11/19 03:07:57;;;;;;;0.90;0.90;;;5.80;99.90;;;;;;5009704;28;20328;-52
2023/11/19 03:10:24;;;;;;;0.90;0.90;;;5.80;99.90;;;;;;5033074;28;20270;-47
2023/11/19 03:12:52;;;;;;;0.80;0.80;;;5.90;99.90;;;;;;5036024;28;20190;-47
2023/11/19 03:15:20;;;;;;;0.97;0.97;;;5.90;99.90;;;;;;5039827;28;20245;-46
2023/11/19 03:17:48;;;;;;;1.47;1.00;;;5.90;99.90;;;;;;5037944;28;20211;-45
2023/11/19 03:20:16;;;;;;;1.33;1.23;;;5.90;99.90;;;;;;5041611;28;20291;-48
2023/11/19 03:22:44;;;;;;;1.33;1.23;;;5.90;99.90;;;;;;5006988;28;20215;-47
2023/11/19 03:25:11;;;;;;;1.67;1.27;;;5.90;99.90;;;;;;5032016;28;20673;-52
2023/11/19 03:27:39;;;;;;;1.07;1.07;;;5.90;99.90;;;;;;5038147;28;20231;-49
2023/11/19 03:30:07;;;;;;;1.77;1.10;;;6.00;99.90;;;;;;5037915;28;20979;-48
2023/11/19 03:32:35;;;;;;;1.53;1.40;;;6.00;99.90;;;;;;5038624;28;20666;-46
2023/11/19 03:35:03;;;;;;;1.50;1.40;;;6.00;99.90;;;;;;5037801;28;20202;-52
2023/11/19 03:37:32;;;;;;;1.50;1.40;;;6.00;99.90;;;;;;5009611;28;20227;-49
2023/11/19 03:40:00;;;;;;;1.70;1.60;;;6.00;99.90;;;;;;5031971;28;20237;-51
2023/11/19 03:42:30;;;;;;;2.00;1.90;;;6.00;99.90;;;;;;5040971;28;20927;-50
2023/11/19 03:44:57;;;;;;;1.97;1.87;;;6.10;99.90;;;;;;5037397;28;20278;-50
2023/11/19 03:47:24;;;;;;;2.30;2.10;;;6.10;99.90;;;;;;5039221;28;20231;-47
2023/11/19 03:49:52;;;;;;;1.80;1.70;;;6.10;99.90;;;;;;5034462;28;20666;-49
2023/11/19 03:52:19;;;;;;;2.10;2.00;;;6.10;99.90;;;;;;5010080;28;20212;-48
2023/11/19 03:54:47;;;;;;;2.23;2.10;;;6.20;99.90;;;;;;5024745;28;20712;-48
2023/11/19 03:57:15;;;;;;;2.37;2.20;;;6.20;99.90;;;;;;5036392;28;20215;-47
2023/11/19 03:59:42;;;;;;;2.53;2.33;;;6.20;99.90;;;;;;5038267;28;20266;-45
2023/11/19 04:02:10;;;;;;;2.33;2.23;;;6.20;99.90;;;;;;5039561;28;20191;-47
2023/11/19 04:04:37;;;;;;;2.57;2.37;;;6.20;99.90;;;;;;5039553;28;20203;-50
2023/11/19 04:07:04;;;;;;;2.70;2.50;;;6.30;99.90;;;;;;5008233;28;22474;-48
2023/11/19 04:09:32;;;;;;;3.20;3.00;;;6.30;99.90;;;;;;5040127;28;20187;-47
2023/11/19 04:12:01;;;;;;;3.50;3.20;;;6.30;99.90;;;;;;5033480;28;20203;-50
2023/11/19 04:14:28;;;;;;;4.10;2.97;;;6.30;99.90;;;;;;5039367;28;20199;-48
2023/11/19 04:16:55;;;;;;;3.47;3.17;;;6.40;99.90;;;;;;5036558;28;20191;-47
2023/11/19 04:19:22;;;;;;;3.57;3.27;;;6.40;99.90;;;;;;5040335;28;20958;-49
2023/11/19 04:21:49;;;;;;;4.53;4.13;;;6.40;99.90;;;;;;5008274;28;20226;-48
2023/11/19 04:24:15;;;;;;;3.70;3.33;;;6.40;99.90;;;;;;5036102;28;20219;-48
2023/11/19 04:26:44;;;;;;;5.87;3.70;;;6.40;99.90;;;;;;5029956;28;20301;-50
2023/11/19 04:29:14;;;;;;;4.83;4.33;;;6.50;99.90;;;;;;5043957;28;20187;-48
2023/11/19 04:31:41;;;;;;;4.40;4.00;;;6.50;99.90;;;;;;5041327;28;20207;-47
2023/11/19 04:34:09;;;;;;;4.70;4.30;;;6.50;99.90;;;;;;5040213;28;20191;-49
2023/11/19 04:36:37;;;;;;;4.77;4.37;;;6.50;99.90;;;;;;5043425;28;20227;-46
2023/11/19 04:39:08;;;;;;;7.30;4.40;;;6.50;99.90;;;;;;5012704;28;20207;-48
2023/11/19 04:41:35;;;;;;;5.10;4.57;;;6.60;99.90;;;;;;5034411;28;20260;-48
2023/11/19 04:44:02;;;;;;;4.63;4.30;;;6.60;99.90;;;;;;5043704;28;20207;-47
2023/11/19 04:46:30;;;;;;;6.20;4.53;;;6.60;99.90;;;;;;5041262;28;20943;-47
2023/11/19 04:48:57;;;;;;;5.77;4.60;;;6.60;99.90;;;;;;5043718;28;20223;-47
2023/11/19 04:51:24;;;;;;;6.10;5.50;;;6.60;99.90;;;;;;5040552;28;21137;-48
2023/11/19 04:53:50;;;;;;;9.43;5.80;;;6.60;99.90;;;;;;5014549;28;20207;-48
2023/11/19 04:56:19;;;;;;;8.73;6.50;;;6.60;99.90;;;;;;5032473;28;20203;-47
2023/11/19 04:58:46;;;;;;;8.20;6.60;;;6.70;99.90;;;;;;5038791;28;20215;-47
2023/11/19 05:01:16;;;;;;;12.33;6.77;;;6.70;99.90;;;;;;5041208;28;20254;-50
2023/11/19 05:03:45;;;;;;;9.20;6.53;;;6.70;99.90;;;;;;5043063;28;20276;-53
2023/11/19 05:06:12;;;;;;;8.70;7.73;;;6.80;99.90;;;;;;5041210;28;20220;-46
2023/11/19 05:08:38;;;;;;;10.07;7.83;;;6.70;99.90;;;;;;5042731;28;20239;-47
2023/11/19 05:11:06;;;;;;;13.90;8.80;;;6.80;99.90;;;;;;5008749;28;20211;-48
2023/11/19 05:13:33;;;;;;;12.07;9.30;;;6.80;99.90;;;;;;5037231;28;20463;-45
2023/11/19 05:16:00;;;;;;;12.23;8.93;;;6.80;99.90;;;;;;5043370;28;20203;-47
2023/11/19 05:18:27;;;;;;;14.47;9.13;;;6.80;99.90;;;;;;5040161;28;20945;-47
2023/11/19 05:20:55;;;;;;;15.10;10.33;;;6.80;99.90;;;;;;5043698;28;20681;-50
2023/11/19 05:23:22;;;;;;;15.40;9.80;;;6.90;99.90;;;;;;5041813;28;20242;-46
2023/11/19 05:25:48;;;;;;;13.10;8.77;;;6.90;99.90;;;;;;5014140;28;20822;-47
2023/11/19 05:28:15;;;;;;;13.23;10.10;;;6.90;99.90;;;;;;5039913;28;20232;-46
2023/11/19 05:30:42;;;;;;;13.50;9.93;;;6.90;99.90;;;;;;5042065;28;20212;-50
2023/11/19 05:33:09;;;;;;;14.57;9.97;;;6.90;99.90;;;;;;5041331;28;20515;-46
2023/11/19 05:35:36;;;;;;;19.30;10.60;;;7.00;99.90;;;;;;5041881;28;20207;-46
2023/11/19 05:38:05;;;;;;;15.97;10.47;;;7.00;99.90;;;;;;5041851;28;20215;-46
2023/11/19 05:40:32;;;;;;;14.73;10.43;;;7.00;99.90;;;;;;5011352;28;20200;-50
2023/11/19 05:42:59;;;;;;;20.03;10.27;;;7.10;99.90;;;;;;5037002;28;20194;-46
2023/11/19 05:45:26;;;;;;;18.57;11.73;;;7.10;99.90;;;;;;5039735;28;20272;-46
2023/11/19 05:47:53;;;;;;;20.03;11.53;;;7.20;99.90;;;;;;5042798;28;20284;-51
2023/11/19 05:50:20;;;;;;;20.43;10.57;;;7.20;99.90;;;;;;5039459;28;20274;-46
2023/11/19 05:52:47;;;;;;;16.37;11.60;;;7.30;99.90;;;;;;5042567;28;20191;-51
2023/11/19 05:55:15;;;;;;;23.10;12.33;;;7.30;99.90;;;;;;5015887;28;20203;-48
2023/11/19 05:57:42;;;;;;;24.17;12.13;;;7.40;99.90;;;;;;5032693;28;20316;-46
2023/11/19 06:00:12;;;;;;;20.37;11.57;;;7.40;99.90;;;;;;5040937;28;20214;-48
2023/11/19 06:02:39;;;;;;;16.77;10.97;;;7.50;99.90;;;;;;5041992;28;20253;-47
2023/11/19 06:05:07;;;;;;;18.90;11.93;;;7.50;99.90;;;;;;5041417;28;20191;-53
2023/11/19 06:07:35;;;;;;;20.37;11.63;;;7.50;99.90;;;;;;5040694;28;20223;-47
2023/11/19 06:10:02;;;;;;;18.30;11.67;;;7.60;99.90;;;;;;5041230;28;20208;-49
2023/11/19 06:12:31;;;;;;;18.57;11.50;;;7.70;99.90;;;;;;5018042;28;20203;-46
2023/11/19 06:14:58;;;;;;;26.83;12.40;;;7.70;99.90;;;;;;5034222;28;20215;-52
2023/11/19 06:17:25;;;;;;;20.60;12.67;;;7.70;99.90;;;;;;5038943;28;20215;-47
2023/11/19 06:19:52;;;;;;;24.27;12.73;;;7.80;99.90;;;;;;5041649;28;20198;-48
2023/11/19 06:22:19;;;;;;;19.10;11.73;;;7.90;99.90;;;;;;5038279;28;21063;-49
2023/11/19 06:24:45;;;;;;;23.93;12.90;;;8.00;99.90;;;;;;5042606;28;20200;-48
2023/11/19 06:27:13;;;;;;;30.60;13.77;;;8.10;99.90;;;;;;5017092;28;20230;-48
2023/11/19 06:29:41;;;;;;;29.63;14.20;;;8.20;99.90;;;;;;5024883;28;20227;-46
2023/11/19 06:32:08;;;;;;;32.13;15.33;;;8.40;99.90;;;;;;5033001;28;20223;-47
2023/11/19 06:34:35;;;;;;;37.83;15.47;;;8.60;99.90;;;;;;5040894;28;20246;-46
2023/11/19 06:37:03;;;;;;;39.53;14.77;;;8.80;99.90;;;;;;5038636;28;20208;-48
2023/11/19 06:39:29;;;;;;;38.03;14.23;;;8.80;99.90;;;;;;5032513;28;20191;-47
2023/11/19 06:41:56;;;;;;;37.83;14.97;;;9.00;99.90;;;;;;5042196;28;20199;-48
2023/11/19 06:44:24;;;;;;;41.77;15.70;;;9.20;99.90;;;;;;4997199;28;20289;-48
2023/11/19 06:46:53;;;;;;;34.77;14.20;;;9.20;99.90;;;;;;5025217;28;20195;-47
2023/11/19 06:49:20;;;;;;;32.70;14.10;;;9.40;99.90;;;;;;5033690;28;20219;-50
2023/11/19 06:51:47;;;;;;;27.93;12.63;;;9.60;99.90;;;;;;5028095;28;20270;-49
2023/11/19 06:54:14;;;;;;;38.43;14.03;;;9.60;99.90;;;;;;5041291;28;20513;-48
2023/11/19 06:56:41;;;;;;;31.87;12.60;;;9.70;99.90;;;;;;5039050;28;20200;-50
2023/11/19 06:59:08;;;;;;;33.43;11.83;;;9.80;99.90;;;;;;5010522;28;20692;-49
2023/11/19 07:01:36;;;;;;;25.40;10.90;;;9.90;99.90;;;;;;5029303;28;20667;-47
2023/11/19 07:04:09;;;;;;;29.33;11.83;;;10.10;99.90;;;;;;5038713;28;20756;-47
2023/11/19 07:06:36;;;;;;;30.23;10.10;;;10.10;99.90;;;;;;5030618;28;20223;-51
2023/11/19 07:09:09;;;;;;;26.57;8.97;;;10.20;99.90;;;;;;5040663;28;20254;-52
2023/11/19 07:11:38;;;;;;;34.80;7.93;;;10.20;99.90;;;;;;5038405;28;20203;-47
2023/11/19 07:14:06;;;;;;;27.73;9.40;;;10.40;99.90;;;;;;5008174;28;20346;-48
2023/11/19 07:16:34;;;;;;;24.87;7.30;;;10.40;99.90;;;;;;5030205;28;20575;-48
2023/11/19 07:19:01;;;;;;;28.00;7.50;;;10.50;99.90;;;;;;5035492;28;21044;-49
2023/11/19 07:21:29;;;;;;;23.87;6.77;;;10.60;99.90;;;;;;5021681;28;20991;-48
2023/11/19 07:23:56;;;;;;;27.90;7.13;;;10.70;99.90;;;;;;5034730;28;20643;-46
2023/11/19 07:26:23;;;;;;;21.87;6.50;;;10.70;99.90;;;;;;5026439;28;20203;-52
2023/11/19 07:28:50;;;;;;;15.20;5.27;;;10.80;99.90;;;;;;5028647;28;20223;-45
2023/11/19 07:31:19;;;;;;;24.33;6.03;;;10.80;99.90;;;;;;5005597;28;20211;-50
2023/11/19 07:33:46;;;;;;;22.97;6.83;;;10.80;99.90;;;;;;5035697;28;20195;-47
2023/11/19 07:36:13;;;;;;;23.47;5.93;;;10.80;99.90;;;;;;5034710;28;20199;-47
2023/11/19 07:38:43;;;;;;;24.53;5.87;;;10.80;99.90;;;;;;5032701;28;20231;-46
2023/11/19 07:41:12;;;;;;;23.93;5.63;;;10.90;99.90;;;;;;5019100;28;23310;-48
2023/11/19 07:43:40;;;;;;;26.30;5.20;;;10.90;99.90;;;;;;5038948;28;20282;-45
2023/11/19 07:46:12;;;;;;;20.13;5.03;;;10.90;99.90;;;;;;4992572;28;20280;-48
2023/11/19 07:48:39;;;;;;;23.07;5.47;;;11.00;99.90;;;;;;5037912;28;20230;-50
2023/11/19 07:51:07;;;;;;;18.43;5.70;;;11.00;99.90;;;;;;5021137;28;20211;-50
2023/11/19 07:53:34;;;;;;;17.87;4.30;;;11.00;99.90;;;;;;5021797;28;20223;-47
2023/11/19 07:56:02;;;;;;;16.40;4.00;;;11.10;99.90;;;;;;5035572;28;20257;-49
2023/11/19 07:58:29;;;;;;;21.17;5.17;;;11.10;99.90;;;;;;5034711;28;20982;-48
2023/11/19 08:00:56;;;;;;;18.00;3.90;;;11.10;99.90;;;;;;5008435;28;20262;-49
2023/11/19 08:03:23;;;;;;;22.23;4.47;;;11.10;99.90;;;;;;5023878;28;20206;-50
2023/11/19 08:05:50;;;;;;;21.57;4.40;;;11.20;99.90;;;;;;5040314;28;20282;-49
2023/11/19 08:08:16;;;;;;;27.47;5.60;;;11.20;99.90;;;;;;5017490;28;20219;-50
2023/11/19 08:10:44;;;;;;;25.83;5.93;;;11.20;99.90;;;;;;5037815;28;20435;-48
2023/11/19 08:13:12;;;;;;;24.20;4.63;;;11.20;99.90;;;;;;5027405;28;20209;-47
2023/11/19 08:15:40;;;;;;;31.33;4.90;;;11.20;99.90;;;;;;5040440;28;20195;-48
2023/11/19 08:18:07;;;;;;;17.83;4.23;;;11.20;99.90;;;;;;4994903;28;20593;-46
2023/11/19 08:20:34;;;;;;;18.17;4.23;;;11.20;99.90;;;;;;5030276;28;20238;-49
2023/11/19 08:23:01;;;;;;;31.13;5.33;;;11.30;99.90;;;;;;5021599;28;20534;-49
2023/11/19 08:25:28;;;;;;;22.13;4.57;;;11.30;99.90;;;;;;5018339;28;20206;-48
2023/11/19 08:27:56;;;;;;;21.30;4.27;;;11.30;99.90;;;;;;5028574;28;20231;-46
2023/11/19 08:30:24;;;;;;;26.27;6.07;;;11.30;99.90;;;;;;5035759;28;20234;-47
2023/11/19 08:32:51;;;;;;;23.20;4.17;;;11.30;99.90;;;;;;5008744;28;20284;-47
2023/11/19 08:35:18;;;;;;;25.80;4.77;;;11.40;99.90;;;;;;5024782;28;20305;-49
2023/11/19 08:37:45;;;;;;;25.13;4.70;;;11.40;99.90;;;;;;5037902;28;20713;-47
2023/11/19 08:40:14;;;;;;;21.00;4.83;;;11.40;99.90;;;;;;5013779;28;20199;-46
2023/11/19 08:42:41;;;;;;;26.07;4.70;;;11.40;99.90;;;;;;5037597;28;20661;-49
2023/11/19 08:45:10;;;;;;;21.73;4.47;;;11.40;99.90;;;;;;5030954;28;20207;-48
2023/11/19 08:47:40;;;;;;;23.87;4.43;;;11.40;99.90;;;;;;5036716;28;20589;-46
2023/11/19 08:50:08;;;;;;;27.33;4.77;;;11.40;99.90;;;;;;4992882;28;20289;-47
2023/11/19 08:52:35;;;;;;;25.90;4.67;;;11.50;99.90;;;;;;5036535;28;20202;-46
2023/11/19 08:55:02;;;;;;;16.13;4.80;;;11.50;99.90;;;;;;5023558;28;20221;-47
2023/11/19 08:57:29;;;;;;;22.37;4.97;;;11.50;99.90;;;;;;5032830;28;20735;-46
2023/11/19 08:59:56;;;;;;;23.10;4.37;;;11.50;99.90;;;;;;5027773;28;20195;-48
2023/11/19 09:02:23;;;;;;;30.33;4.80;;;11.50;99.90;;;;;;5032671;28;20199;-46
2023/11/19 09:04:51;;;;;;;22.97;4.53;;;11.60;99.90;;;;;;5007132;28;20679;-48
2023/11/19 09:07:18;;;;;;;20.03;4.10;;;11.60;99.90;;;;;;5016792;28;20243;-48
2023/11/19 09:09:45;;;;;;;20.57;4.40;;;11.60;99.90;;;;;;5024406;28;20230;-48
2023/11/19 09:12:13;;;;;;;25.50;4.30;;;11.60;99.90;;;;;;5032488;28;20203;-45
2023/11/19 09:14:41;;;;;;;24.13;5.03;;;11.70;99.90;;;;;;5030733;28;20203;-48
2023/11/19 09:17:09;;;;;;;20.63;4.90;;;11.70;99.90;;;;;;5035119;28;20216;-45
2023/11/19 09:19:36;;;;;;;20.23;3.77;;;11.70;99.90;;;;;;5003644;28;20202;-49
2023/11/19 09:22:05;;;;;;;21.60;4.37;;;11.70;99.90;;;;;;5037229;28;20289;-49
2023/11/19 09:24:32;;;;;;;25.00;5.07;;;11.80;99.90;;;;;;5015687;28;20283;-46
2023/11/19 09:27:00;;;;;;;22.03;4.50;;;11.80;99.90;;;;;;5032071;28;20245;-47
2023/11/19 09:29:26;;;;;;;26.30;4.17;;;11.80;99.90;;;;;;5038749;28;20269;-51
2023/11/19 09:31:53;;;;;;;20.17;4.20;;;11.80;99.90;;;;;;5033863;28;20227;-45
2023/11/19 09:34:20;;;;;;;23.90;4.50;;;11.80;99.90;;;;;;5025904;28;20277;-49
2023/11/19 09:36:47;;;;;;;21.07;4.40;;;11.80;99.90;;;;;;5034160;28;20276;-44
2023/11/19 09:39:17;;;;;;;27.30;4.87;;;11.80;99.90;;;;;;5039058;28;20199;-44
2023/11/19 09:41:44;;;;;;;33.23;5.40;;;11.80;99.90;;;;;;5034989;28;20201;-47
2023/11/19 09:44:12;;;;;;;24.13;4.03;;;11.80;99.90;;;;;;5042341;28;20199;-45
2023/11/19 09:46:39;;;;;;;22.07;4.03;;;11.80;99.90;;;;;;5035870;28;20199;-45
2023/11/19 09:49:08;;;;;;;15.13;4.53;;;11.80;99.90;;;;;;5029839;28;20265;-45
2023/11/19 09:51:35;;;;;;;23.30;5.07;;;11.80;99.90;;;;;;5037624;28;20199;-49
2023/11/19 09:54:01;;;;;;;24.27;4.90;;;11.70;99.90;;;;;;5038633;28;20249;-45
2023/11/19 09:56:30;;;;;;;25.97;5.53;;;11.70;99.90;;;;;;5022101;28;20199;-49
2023/11/19 09:58:57;;;;;;;27.17;4.37;;;11.80;99.90;;;;;;5039993;28;20237;-48
2023/11/19 10:01:25;;;;;;;26.73;5.70;;;11.80;99.90;;;;;;5036362;28;20269;-49
2023/11/19 10:03:56;;;;;;;26.30;5.10;;;11.90;99.90;;;;;;5036705;28;20207;-47
2023/11/19 10:06:23;;;;;;;24.27;6.23;;;11.90;99.90;;;;;;5012837;28;20223;-49
2023/11/19 10:08:50;;;;;;;30.30;5.70;;;11.90;99.90;;;;;;5028454;28;20339;-44
2023/11/19 10:11:18;;;;;;;27.50;4.47;;;11.90;99.90;;;;;;5026885;28;20816;-47
2023/11/19 10:13:47;;;;;;;22.93;5.30;;;12.00;99.90;;;;;;5025195;28;20202;-44
2023/11/19 10:16:14;;;;;;;24.07;4.70;;;12.00;99.90;;;;;;5031091;28;20195;-46
2023/11/19 10:18:45;;;;;;;22.63;5.10;;;12.00;99.90;;;;;;5033633;28;20963;-46
2023/11/19 10:21:16;;;;;;;23.63;5.10;;;12.00;99.90;;;;;;5007522;28;20231;-45
2023/11/19 10:23:51;;;;;;;20.43;5.10;;;12.00;99.90;;;;;;5027429;28;20266;-44
2023/11/19 10:26:18;;;;;;;30.87;5.43;;;12.10;99.90;;;;;;5028167;28;20187;-41
2023/11/19 10:28:47;;;;;;;29.47;4.87;;;12.10;99.90;;;;;;5028790;28;20227;-45
2023/11/19 10:31:14;;;;;;;23.17;4.50;;;12.10;99.90;;;;;;5034547;28;20207;-41
2023/11/19 10:33:42;;;;;;;18.33;4.57;;;12.20;99.90;;;;;;5021763;28;20320;-58
2023/11/19 10:36:09;;;;;;;24.53;4.43;;;12.20;99.90;;;;;;5007035;28;20207;-44
2023/11/19 10:38:36;;;;;;;23.40;4.83;;;12.30;99.90;;;;;;5034269;28;20213;-42
2023/11/19 10:41:04;;;;;;;23.40;4.90;;;12.30;99.90;;;;;;5028921;28;21132;-46
2023/11/19 10:43:31;;;;;;;28.47;5.47;;;12.30;99.90;;;;;;5008277;28;20209;-43
2023/11/19 10:46:11;;;;;;;18.50;4.57;;;12.20;99.90;;;;;;5032835;28;20693;-43
2023/11/19 10:48:39;;;;;;;28.07;5.33;;;12.20;99.90;;;;;;5028304;28;20709;-44
2023/11/19 10:51:08;;;;;;;22.57;4.37;;;12.20;99.90;;;;;;5038543;28;20212;-43
2023/11/19 10:53:38;;;;;;;20.87;4.40;;;12.30;99.90;;;;;;5001720;28;20207;-44
2023/11/19 10:56:11;;;;;;;19.37;4.00;;;12.20;99.90;;;;;;5031921;28;20214;-45
2023/11/19 10:58:39;;;;;;;17.83;4.17;;;12.20;99.90;;;;;;5021562;28;20219;-42
2023/11/19 11:01:12;;;;;;;24.57;3.77;;;12.10;99.90;;;;;;5029710;28;20671;-42
2023/11/19 11:03:41;;;;;;;22.90;4.67;;;12.10;99.90;;;;;;5035029;28;20184;-42
2023/11/19 11:06:09;;;;;;;21.03;4.37;;;12.10;99.90;;;;;;5030681;28;20249;-43
2023/11/19 11:08:38;;;;;;;15.30;4.27;;;12.10;99.90;;;;;;5003902;28;20905;-43
2023/11/19 11:11:06;;;;;;;23.63;4.40;;;12.10;99.90;;;;;;5029164;28;20277;-44
2023/11/19 11:13:34;;;;;;;19.47;4.27;;;12.10;99.90;;;;;;5024799;28;20260;-44
2023/11/19 11:16:04;;;;;;;24.50;5.40;;;12.00;99.90;;;;;;5030164;28;20207;-43
2023/11/19 11:18:32;;;;;;;21.47;4.03;;;12.00;99.90;;;;;;5036302;28;20234;-42
2023/11/19 11:21:06;;;;;;;22.30;4.77;;;11.90;99.90;;;;;;5027771;28;20211;-41
2023/11/19 11:24:01;;;;;;;28.80;6.07;;;11.90;99.90;;;;;;4997615;28;20611;-45
2023/11/19 11:27:00;;;;;;;16.77;5.17;;;11.90;99.90;;;;;;5029853;28;20207;-40
2023/11/19 11:29:36;;;;;;;19.50;4.47;;;11.90;99.90;;;;;;5024655;28;20631;-42
2023/11/19 11:32:17;;;;;;;26.30;5.70;;;11.90;99.90;;;;;;5009858;28;20206;-42
2023/11/19 11:35:01;;;;;;;21.30;4.27;;;11.90;99.90;;;;;;5034296;28;20207;-41
2023/11/19 11:37:35;;;;;;;23.00;4.37;;;12.00;99.90;;;;;;5018952;28;20314;-41
2023/11/19 11:40:09;;;;;;;26.50;5.82;;;12.00;99.90;;;;;;5005114;28;20489;-42
2023/11/19 11:42:37;;;;;;;28.03;6.13;;;12.20;99.90;;;;;;5026618;28;20573;-42
2023/11/19 11:45:08;;;;;;;16.97;4.73;;;12.20;99.90;;;;;;5024674;28;20944;-41
2023/11/19 11:48:15;;;;;;;23.63;4.30;;;12.20;99.90;;;;;;5030464;28;20221;-45
2023/11/19 11:51:05;;;;;;;21.03;4.50;;;12.10;99.90;;;;;;4987098;28;20624;-41
2023/11/19 11:53:36;;;;;;;24.77;4.97;;;12.10;99.90;;;;;;5018118;28;20686;-42
2023/11/19 11:56:03;;;;;;;19.93;4.33;;;12.10;99.90;;;;;;5017185;28;20208;-43
2023/11/19 11:58:36;;;;;;;20.10;4.87;;;12.00;99.90;;;;;;5040353;28;20215;-45
2023/11/19 12:01:06;;;;;;;23.53;4.77;;;11.90;99.90;;;;;;5021863;28;20272;-42
2023/11/19 12:03:34;;;;;;;26.33;4.90;;;11.80;99.90;;;;;;5027373;28;20779;-41
2023/11/19 12:06:01;;;;;;;21.40;4.30;;;11.70;99.90;;;;;;5036236;28;20195;-42
2023/11/19 12:08:30;;;;;;;30.80;4.97;;;11.70;99.90;;;;;;5016106;28;20238;-42
2023/11/19 12:11:03;;;;;;;18.57;4.30;;;11.70;99.90;;;;;;5007178;28;20273;-43
2023/11/19 12:13:53;;;;;;;31.57;5.20;;;11.70;99.90;;;;;;5029342;28;20214;-42
2023/11/19 12:16:21;;;;;;;22.13;5.10;;;11.60;99.90;;;;;;5024154;28;20199;-44
2023/11/19 12:18:48;;;;;;;25.13;5.20;;;11.60;99.90;;;;;;5029132;28;20220;-43
2023/11/19 12:21:29;;;;;;;28.23;5.30;;;11.70;99.90;;;;;;5033426;28;20226;-42
2023/11/19 12:24:03;;;;;;;32.73;4.77;;;11.80;99.90;;;;;;5016973;28;20963;-42
2023/11/19 12:26:40;;;;;;;28.87;5.50;;;11.80;99.90;;;;;;5005579;28;20201;-43
2023/11/19 12:29:07;;;;;;;25.27;5.43;;;11.90;99.90;;;;;;5027616;28;20976;-43
2023/11/19 12:31:37;;;;;;;26.47;4.67;;;12.00;99.90;;;;;;5034899;28;20215;-45
2023/11/19 12:34:11;;;;;;;28.90;5.20;;;11.90;99.90;;;;;;5028899;28;20214;-45
2023/11/19 12:36:39;;;;;;;22.50;4.87;;;11.90;99.90;;;;;;5037812;28;20278;-44
2023/11/19 12:39:07;;;;;;;23.53;4.47;;;11.90;99.90;;;;;;5019492;28;20227;-44
2023/11/19 12:41:50;;;;;;;22.70;4.90;;;11.90;99.90;;;;;;5012541;28;20230;-43
2023/11/19 12:44:17;;;;;;;24.93;5.33;;;11.80;99.90;;;;;;5016554;28;20211;-42
2023/11/19 12:46:43;;;;;;;27.10;6.17;;;11.80;99.90;;;;;;5036951;28;20682;-41
2023/11/19 12:49:12;;;;;;;18.77;4.40;;;11.80;99.90;;;;;;5034360;28;20276;-43
2023/11/19 12:51:39;;;;;;;22.87;5.30;;;11.80;99.90;;;;;;5031927;28;20223;-42